Latest Weather Observations for Larapuna (Eddystone Point)

IDT60801

Issued at 2:21 am EST Friday 19 August 2022 (issued every 10 minutes, with the page automatically refreshed every 10 minutes)

About weather observations | Map of weather stations | Latest weather observations for TAS | Other Formats
Station Details ID: 092045 Name: LARAPUNA (EDDYSTONE POINT) Lat: -40.99 Lon: 148.35 Height: 19.7 m
Data from the previous 72 hours. | See also: Recent months at Larapuna (Eddystone Point)
Date/Time
EST
Temp
°C
App
Temp
°C
Dew
Point
°C
Rel
Hum
%
Delta-T
°C
Wind Press
QNH
hPa
Press
MSL
hPa
Rain since
9am
mm
Dir  Spd
km/h
Gust
km/h
Spd
kts
Gust
kts
19/02:00am 10.5 5.2 8.4 87 1.0 WNW 26 37 14 20 1004.8 1004.8 0.2
19/01:30am 10.6 4.9 8.5 87 1.0 NW 28 37 15 20 1004.7 1004.7 0.2
19/01:00am 10.7 4.3 8.6 87 1.0 NW 32 44 17 24 1004.6 1004.6 0.2
19/12:30am 10.7 4.7 8.6 87 1.0 NW 30 39 16 21 1004.2 1004.2 0.2
19/12:00am 10.9 4.3 8.7 86 1.1 NW 33 43 18 23 1004.3 1004.3 0.2
 
Date/Time
EST
Temp
°C
App
Temp
°C
Dew
Point
°C
Rel
Hum
%
Delta-T
°C
Wind Press
QNH
hPa
Press
MSL
hPa
Rain since
9am
mm
Dir  Spd
km/h
Gust
km/h
Spd
kts
Gust
kts
18/11:30pm 11.2 4.6 8.6 84 1.3 NW 33 41 18 22 1004.3 1004.3 0.2
18/11:00pm 11.3 4.8 8.3 82 1.5 WNW 32 43 17 23 1004.2 1004.2 0.2
18/10:30pm 11.3 4.6 8.3 82 1.5 WNW 33 48 18 26 1004.4 1004.4 0.2
18/10:09pm 11.4 5.0 8.4 82 1.5 WNW 32 50 17 27 1004.3 1004.3 0.2
18/10:00pm 11.4 5.0 8.6 83 1.4 WNW 32 44 17 24 1004.3 1004.3 0.2
18/09:33pm 11.5 4.9 8.7 83 1.4 WNW 33 52 18 28 1004.0 1004.0 0.2
18/09:30pm 11.6 4.7 8.8 83 1.4 WNW 35 52 19 28 1003.9 1003.9 0.2
18/09:00pm 11.4 4.5 8.8 84 1.3 WNW 35 48 19 26 1003.7 1003.7 0.2
18/08:30pm 11.3 4.0 8.9 85 1.2 NW 37 50 20 27 1003.5 1003.5 0.2
18/08:00pm 11.5 5.0 8.9 84 1.3 NW 33 44 18 24 1003.5 1003.5 0.2
18/07:30pm 11.6 5.7 9.0 84 1.3 WNW 30 44 16 24 1003.5 1003.5 0.2
18/07:01pm 11.9 5.3 8.7 81 1.6 WNW 33 52 18 28 1002.9 1002.9 0.2
18/07:00pm 11.8 4.8 8.6 81 1.6 WNW 35 52 19 28 1002.9 1002.9 0.2
18/06:38pm 12.6 5.6 9.8 83 1.4 NW 37 59 20 32 1002.1 1002.1 0.2
18/06:30pm 12.7 5.6 9.7 82 1.5 NW 37 54 20 29 1002.0 1002.0 0.2
18/06:00pm 12.6 6.0 10.0 84 1.3 NW 35 56 19 30 1002.0 1002.0 0.2
18/05:30pm 12.8 5.1 10.2 84 1.3 NW 41 61 22 33 1001.6 1001.6 0.2
18/05:16pm 13.4 5.0 9.6 78 1.9 NW 44 65 24 35 1001.4 1001.4 0.2
18/05:00pm 13.5 5.1 9.7 78 2.0 NW 44 61 24 33 1001.2 1001.2 0.2
18/04:30pm 13.9 5.0 9.3 74 2.3 NW 46 65 25 35 1000.9 1000.9 0.2
18/04:00pm 14.6 4.6 9.4 71 2.7 NW 52 70 28 38 1000.4 1000.4 0.2
18/03:30pm 14.6 4.2 9.4 71 2.7 NW 54 76 29 41 1000.3 1000.3 0.2
18/03:00pm 14.5 4.2 9.5 72 2.6 NW 54 76 29 41 1000.4 1000.4 0.2
18/02:38pm 14.7 4.3 9.3 70 2.8 NW 54 74 29 40 1000.5 1000.5 0.2
18/02:30pm 14.6 4.6 9.2 70 2.8 NW 52 69 28 37 1000.4 1000.4 0.2
18/02:00pm 14.0 5.8 9.6 75 2.3 NNW 43 76 23 41 1000.7 1000.7 0.2
18/01:40pm 13.9 6.1 9.9 77 2.1 NNW 41 61 22 33 1000.7 1000.7 0.2
18/01:30pm 13.7 5.5 9.7 77 2.1 NNW 43 57 23 31 1000.8 1000.8 0.2
18/01:05pm 13.7 5.3 9.6 76 2.1 NW 44 63 24 34 1001.0 1001.0 0.2
18/01:00pm 13.7 4.9 9.6 76 2.1 NW 46 63 25 34 1001.0 1001.0 0.2
18/12:44pm 13.0 2.2 9.8 81 1.6 NW 57 85 31 46 1001.3 1001.3 0.2
18/12:43pm 13.0 1.8 9.8 81 1.6 NW 59 89 32 48 1001.4 1001.4 0.2
18/12:36pm 13.7 2.9 9.2 74 2.3 NW 56 89 30 48 1001.5 1001.5 0.2
18/12:35pm 13.9 3.4 8.9 72 2.5 NW 54 89 29 48 1001.4 1001.4 0.2
18/12:33pm 14.1 5.0 8.5 69 2.8 NW 46 89 25 48 1001.5 1001.5 0.2
18/12:30pm 14.0 5.6 8.8 71 2.6 NNW 43 61 23 33 1001.5 1001.5 0.0
18/12:00pm 13.5 6.8 9.7 78 2.0 NNW 35 54 19 29 1001.6 1001.6 0.0
18/11:30am 14.0 6.3 10.0 77 2.1 NNW 41 54 22 29 1002.3 1002.3 0.0
18/11:00am 13.1 5.4 10.3 83 1.5 NNW 41 52 22 28 1002.4 1002.4 0.0
18/10:30am 13.5 5.7 9.9 79 1.9 NNW 41 54 22 29 1002.5 1002.5 0.0
18/10:00am 13.6 4.7 9.3 75 2.2 NNW 46 65 25 35 1002.8 1002.8 0.0
18/09:55am 13.7 4.9 9.4 75 2.2 NNW 46 65 25 35 1002.8 1002.8 0.0
18/09:30am 13.7 5.1 8.7 72 2.5 NNW 44 56 24 30 1003.2 1003.2 0.0
18/09:00am 13.5 6.0 9.6 77 2.0 NNW 39 50 21 27 1003.3 1003.3 0.8
18/08:30am 12.9 5.0 9.2 78 1.9 NNW 41 57 22 31 1003.7 1003.7 0.8
18/08:11am 12.7 3.9 9.5 81 1.6 NW 46 67 25 36 1003.9 1003.9 0.8
18/08:00am 12.3 4.1 9.7 84 1.3 NNW 43 57 23 31 1004.1 1004.1 0.8
18/07:41am 11.9 4.4 9.6 86 1.2 NNW 39 57 21 31 1004.6 1004.6 0.8
18/07:30am 11.9 4.5 9.8 87 1.1 NNW 39 48 21 26 1004.7 1004.7 0.8
18/07:00am 11.7 3.3 9.8 88 1.0 NNW 44 65 24 35 1004.8 1004.8 0.8
18/06:59am 11.7 3.6 9.9 89 0.9 NNW 43 61 23 33 1004.9 1004.9 0.8
18/06:30am 11.6 3.6 10.3 92 0.7 NNW 43 54 23 29 1005.0 1005.0 0.8
18/06:00am 11.6 4.0 10.5 93 0.6 NNW 41 54 22 29 1004.8 1004.8 0.8
18/05:30am 11.5 3.8 10.2 92 0.7 NW 41 57 22 31 1005.5 1005.5 0.6
18/05:13am 11.5 4.2 10.2 92 0.7 NNW 39 61 21 33 1005.7 1005.7 0.6
18/05:00am 11.6 4.7 10.3 92 0.7 NNW 37 50 20 27 1005.8 1005.8 0.4
18/04:30am 11.8 5.3 10.4 91 0.7 NNW 35 48 19 26 1006.1 1006.1 0.2
18/04:00am 12.1 4.8 10.2 88 1.0 NNW 39 48 21 26 1006.5 1006.5 0.0
18/03:30am 12.2 5.7 10.3 88 1.0 NNW 35 46 19 25 1006.6 1006.6 0.0
18/03:00am 12.0 5.1 10.4 90 0.8 NNW 37 48 20 26 1006.8 1006.8 0.0
18/02:30am 12.1 4.8 10.3 89 0.9 NNW 39 50 21 27 1007.6 1007.6 0.0
18/02:00am 12.1 6.6 10.5 90 0.8 NNW 30 43 16 23 1008.2 1008.2 0.0
18/01:54am 12.1 6.2 10.5 90 0.8 NNW 32 50 17 27 1008.2 1008.2 0.0
18/01:30am 11.9 6.3 10.3 90 0.8 NNW 30 43 16 23 1008.1 1008.1 0.0
18/01:00am 11.4 6.9 10.0 91 0.7 NW 24 32 13 17 1009.0 1009.0 0.0
18/12:30am 11.5 5.4 9.9 90 0.8 NNW 32 43 17 23 1009.2 1009.2 0.0
18/12:00am 11.7 4.8 10.3 91 0.7 NNW 37 46 20 25 1009.6 1009.6 0.0
 
Date/Time
EST
Temp
°C
App
Temp
°C
Dew
Point
°C
Rel
Hum
%
Delta-T
°C
Wind Press
QNH
hPa
Press
MSL
hPa
Rain since
9am
mm
Dir  Spd
km/h
Gust
km/h
Spd
kts
Gust
kts
17/11:30pm 11.3 6.0 9.7 90 0.8 NNW 28 37 15 20 1010.5 1010.5 0.0
17/11:00pm 11.2 4.9 9.6 90 0.8 NNW 33 41 18 22 1010.6 1010.6 0.0
17/10:30pm 11.3 5.2 9.9 91 0.7 NNW 32 41 17 22 1010.9 1010.9 0.0
17/10:00pm 11.4 5.3 9.8 90 0.8 NNW 32 43 17 23 1011.3 1011.3 0.0
17/09:30pm 11.1 6.1 9.7 91 0.7 NNW 26 35 14 19 1011.5 1011.5 0.0
17/09:00pm 10.7 6.3 9.0 89 0.8 NNW 22 30 12 16 1011.6 1011.6 0.0
17/08:30pm 10.7 5.2 9.3 91 0.7 NW 28 35 15 19 1011.9 1011.9 0.0
17/08:00pm 10.6 5.2 9.5 93 0.6 NW 28 37 15 20 1012.2 1012.2 0.0
17/07:30pm 10.3 5.6 9.4 94 0.4 NW 24 32 13 17 1012.4 1012.4 0.0
17/07:00pm 10.1 5.4 9.2 94 0.4 NW 24 32 13 17 1012.5 1012.5 0.0
17/06:30pm 10.3 4.8 9.1 92 0.6 NW 28 39 15 21 1013.1 1013.1 0.0
17/06:00pm 10.6 5.3 8.5 87 1.0 NW 26 37 14 20 1013.1 1013.1 0.0
17/05:30pm 10.8 5.4 8.2 84 1.3 NW 26 35 14 19 1012.9 1012.9 0.0
17/05:00pm 11.2 6.6 8.2 82 1.5 NW 22 33 12 18 1012.8 1012.8 0.0
17/04:30pm 11.3 6.3 8.2 81 1.5 NW 24 32 13 17 1013.2 1013.2 0.0
17/04:00pm 11.4 5.6 8.1 80 1.6 NW 28 37 15 20 1013.1 1013.1 0.0
17/03:30pm 11.5 5.4 8.2 80 1.6 NW 30 41 16 22 1013.4 1013.4 0.0
17/03:00pm 11.6 5.9 8.3 80 1.6 NW 28 39 15 21 1014.0 1014.0 0.0
17/02:30pm 11.8 6.9 8.5 80 1.6 NW 24 33 13 18 1014.2 1014.2 0.0
17/02:00pm 11.7 5.9 8.0 78 1.8 NW 28 41 15 22 1014.6 1014.6 0.0
17/01:30pm 11.7 6.0 8.4 80 1.6 NW 28 37 15 20 1014.9 1014.9 0.0
17/01:00pm 11.8 6.6 8.8 82 1.5 NW 26 33 14 18 1015.3 1015.3 0.0
17/12:30pm 12.1 7.0 9.1 82 1.5 NW 26 35 14 19 1016.0 1016.0 0.0
17/12:00pm 13.5 8.4 10.7 83 1.5 NW 28 37 15 20 1016.4 1016.4 0.0
17/11:30am 13.3 8.4 10.1 81 1.7 NNW 26 33 14 18 1016.8 1016.8 0.0
17/11:00am 12.0 7.6 10.4 90 0.8 NW 24 30 13 16 1017.1 1017.1 0.0
17/10:30am 11.8 7.4 10.4 91 0.7 NW 24 33 13 18 1017.1 1017.1 0.0
17/10:00am 12.1 8.7 11.3 95 0.4 NW 20 26 11 14 1017.4 1017.4 0.0
17/09:30am 11.6 8.3 11.0 96 0.3 N 19 22 10 12 1017.5 1017.5 0.0
17/09:00am 11.3 9.5 10.7 96 0.3 NNW 11 17 6 9 1017.3 1017.3 0.2
17/08:30am 11.2 10.1 10.6 96 0.3 N 7 13 4 7 1017.5 1017.5 0.0
17/08:00am 10.4 8.6 9.6 95 0.4 WNW 9 11 5 6 1017.4 1017.4 0.0
17/07:30am 10.2 9.0 9.6 96 0.3 W 6 11 3 6 1017.3 1017.3 0.0
17/07:00am 9.5 7.9 8.9 96 0.3 WSW 7 9 4 5 1016.9 1016.9 0.0
17/06:30am 9.1 7.0 8.3 95 0.4 WNW 9 11 5 6 1016.8 1016.8 0.0
17/06:00am 9.4 7.4 8.8 96 0.3 WNW 9 11 5 6 1016.5 1016.5 0.0
17/05:30am 9.1 7.1 8.5 96 0.3 W 9 13 5 7 1016.4 1016.4 0.0
17/05:00am 9.1 7.1 8.5 96 0.3 W 9 11 5 6 1016.4 1016.4 0.0
17/04:30am 9.0 6.9 8.4 96 0.3 WSW 9 11 5 6 1015.9 1015.9 0.0
17/04:00am 9.0 7.3 8.2 95 0.4 SW 7 9 4 5 1015.2 1015.2 0.0
17/03:30am 9.5 8.1 8.7 95 0.4 WSW 6 7 3 4 1015.1 1015.1 0.0
17/03:00am 9.8 7.9 8.9 94 0.4 S 9 13 5 7 1014.9 1014.9 0.0
17/02:30am 10.4 7.5 9.5 94 0.5 SSE 15 20 8 11 1014.7 1014.7 0.0
17/02:00am 9.6 7.2 8.8 95 0.4 S 11 15 6 8 1014.5 1014.5 0.0
17/01:30am 9.9 6.8 9.0 94 0.4 SSW 15 17 8 9 1014.9 1014.9 0.0
17/01:00am 10.8 7.0 9.9 94 0.5 S 20 26 11 14 1014.5 1014.5 0.0
17/12:30am 10.6 7.4 9.8 95 0.4 S 17 22 9 12 1014.3 1014.3 0.0
17/12:00am 10.6 6.8 9.8 95 0.4 S 20 26 11 14 1014.1 1014.1 0.0
 
Date/Time
EST
Temp
°C
App
Temp
°C
Dew
Point
°C
Rel
Hum
%
Delta-T
°C
Wind Press
QNH
hPa
Press
MSL
hPa
Rain since
9am
mm
Dir  Spd
km/h
Gust
km/h
Spd
kts
Gust
kts
16/11:30pm 9.9 6.8 8.8 93 0.5 S 15 17 8 9 1014.0 1014.0 0.0
16/11:00pm 11.0 8.1 9.8 92 0.6 S 15 19 8 10 1014.1 1014.1 0.0
16/10:30pm 11.6 8.9 10.3 92 0.7 SSE 15 19 8 10 1014.2 1014.2 0.0
16/10:00pm 11.5 8.3 9.9 90 0.8 SE 17 20 9 11 1014.4 1014.4 0.0
16/09:30pm 11.2 9.4 9.5 89 0.9 SSE 9 11 5 6 1014.5 1014.5 0.0
16/09:00pm 11.6 10.4 9.5 87 1.1 SSW 6 7 3 4 1013.8 1013.8 0.0
16/08:30pm 11.5 10.4 9.9 90 0.8 SW 6 9 3 5 1013.6 1013.6 0.0
16/08:00pm 11.7 10.1 10.1 90 0.8 SSW 9 13 5 7 1013.1 1013.1 0.0
16/07:30pm 11.9 10.3 10.3 90 0.8 SSW 9 11 5 6 1012.4 1012.4 0.0
16/07:00pm 12.0 11.0 10.2 89 0.9 NE 6 7 3 4 1011.6 1011.6 0.0
16/06:30pm 11.9 10.6 9.8 87 1.1 NE 7 9 4 5 1010.7 1010.7 0.0
16/06:00pm 12.4 11.1 10.0 85 1.2 NNW 7 7 4 4 1010.2 1010.2 0.0
16/05:30pm 13.0 11.7 9.8 81 1.6 E 7 9 4 5 1009.7 1009.7 0.0
16/05:00pm 13.5 11.1 9.9 79 1.9 SE 13 15 7 8 1009.2 1009.2 0.0
16/04:30pm 14.2 11.0 10.0 76 2.2 WSW 17 20 9 11 1008.7 1008.7 0.0
16/04:00pm 14.4 11.3 10.2 76 2.2 WNW 17 26 9 14 1008.1 1008.1 0.0
16/03:30pm 14.7 11.4 9.7 72 2.6 WNW 17 20 9 11 1007.6 1007.6 0.0
16/03:00pm 13.7 10.9 10.1 79 1.9 N 15 19 8 10 1007.6 1007.6 0.0
16/02:30pm 15.0 12.1 11.0 77 2.1 N 17 20 9 11 1007.5 1007.5 0.0
16/02:00pm 15.0 11.8 10.0 72 2.6 N 17 20 9 11 1007.1 1007.1 0.0
16/01:30pm 15.2 12.7 9.8 70 2.8 N 13 17 7 9 1006.5 1006.5 0.0
16/01:00pm 15.4 13.4 8.6 64 3.5 NNE 9 15 5 8 1006.3 1006.3 0.0
16/12:30pm 16.3 14.9 9.5 64 3.5 SE 7 9 4 5 1006.2 1006.2 0.0
16/12:00pm 15.4 14.1 9.1 66 3.2 SSE 6 9 3 5 1006.4 1006.4 0.0
16/11:30am 14.5 12.7 8.0 65 3.2 S 7 9 4 5 1006.4 1006.4 0.0
16/11:00am 14.2 12.2 8.8 70 2.7 SSW 9 11 5 6 1006.5 1006.5 0.0
16/10:30am 12.6 10.9 9.8 83 1.4 SSW 9 11 5 6 1005.9 1005.9 0.0
16/10:00am 11.5 8.8 8.9 84 1.3 SSW 13 15 7 8 1005.4 1005.4 0.0
16/09:30am 11.3 6.8 8.7 84 1.3 SSW 22 26 12 14 1004.9 1004.9 0.0
16/09:00am 10.9 7.3 8.5 85 1.2 SW 17 20 9 11 1004.3 1004.3 12.2
16/08:30am 9.6 6.2 7.5 87 1.0 SW 15 19 8 10 1003.8 1003.8 12.2
16/08:00am 9.7 6.7 7.5 86 1.1 SW 13 17 7 9 1003.5 1003.5 12.2
16/07:30am 9.6 5.7 7.0 84 1.2 WSW 17 24 9 13 1002.8 1002.8 12.2
16/07:00am 8.0 4.3 6.5 90 0.7 W 15 17 8 9 1002.2 1002.2 12.2
16/06:30am 7.8 5.2 6.3 90 0.7 W 9 13 5 7 1001.7 1001.7 12.2
16/06:00am 8.0 5.0 6.1 88 0.9 WNW 11 13 6 7 1001.4 1001.4 12.2
16/05:30am 8.9 6.3 6.3 84 1.2 WSW 9 11 5 6 1001.0 1001.0 12.2
16/05:00am 8.1 4.9 6.9 92 0.6 SW 13 15 7 8 1000.4 1000.4 12.2
16/04:30am 8.3 5.9 7.2 93 0.5 SW 9 13 5 7 1000.0 1000.0 12.0
16/04:00am 8.4 6.0 7.2 92 0.6 W 9 13 5 7 999.5 999.5 12.0
16/03:30am 8.6 5.9 7.4 92 0.6 WSW 11 13 6 7 999.2 999.2 12.0
16/03:00am 9.0 7.8 8.1 94 0.4 W 4 7 2 4 999.1 999.1 12.0
16/02:30am 9.5 6.7 8.6 94 0.4 SW 13 15 7 8 999.0 999.0 12.0

Other formats

Comma delimited format used in spreadsheet applications
http://www.bom.gov.au/fwo/IDT60801/IDT60801.94983.axf

JavaScript Object Notation format (JSON) in row-major order
http://www.bom.gov.au/fwo/IDT60801/IDT60801.94983.json

Data quality

Most of these data are generated automatically and are frequently updated. Quality checks on data are not normally performed. It is possible for incorrect values to appear. Refer to information at About Latest Weather Observations and please check the disclaimer before using these data.